KGWO/GWO METAR and TAF weather

Enter ICAO airport designator
Station Type Date Time Source
KGWO METAR 2021/07/29 18:53 UTC NOAA

KGWO 291853Z AUTO 00000KT 10SM CLR 35/24 A3004 RMK AO2 SLP168 T03500239


Station Type Date Time Source
KGWO Decoded METAR 2021/07/29 18:53 UTC NOAA

GREENWOOD-LEFLORE AIRPORT, MS, United States (KGWO) 33-30N 090-05W 44M
Jul 29, 2021 - 02:53 PM EDT / 2021.07.29 1853 UTC
Wind: Calm:0
Visibility: 10 mile(s):0
Sky conditions: clear
Temperature: 95.0 F (35.0 C)
Heat index: 106.7 F (41.5 C):1
Dew Point: 75.0 F (23.9 C)
Relative Humidity: 52%
Pressure (altimeter): 30.04 in. Hg (1017 hPa)
ob: KGWO 291853Z AUTO 00000KT 10SM CLR 35/24 A3004 RMK AO2 SLP168 T03500239
cycle: 19

Station Type Date Time Source
KGWO TAF 2021/07/29 18:22 UTC NOAA

TAF KGWO 291720Z 2918/3018 35005KT P6SM SCT050
FM300100 00000KT P6SM SKC
FM301500 28003KT P6SM SCT025

Example: see airport list